sensor_id;sensor_type;location;lat;lon;timestamp;pressure;altitude;pressure_sealevel;temperature;humidity
23281;BME280;11809;56.390;-3.266;2023-05-17T00:01:55;102322.53;;;17.82;56.01
23281;BME280;11809;56.390;-3.266;2023-05-17T00:04:22;102326.91;;;17.83;56.14
23281;BME280;11809;56.390;-3.266;2023-05-17T00:06:49;102321.66;;;17.82;56.14
23281;BME280;11809;56.390;-3.266;2023-05-17T00:09:17;102327.00;;;17.82;56.01
23281;BME280;11809;56.390;-3.266;2023-05-17T00:11:44;102310.28;;;17.78;56.09
23281;BME280;11809;56.390;-3.266;2023-05-17T00:14:11;102319.09;;;17.80;56.18
23281;BME280;11809;56.390;-3.266;2023-05-17T00:16:38;102325.38;;;17.78;56.09
23281;BME280;11809;56.390;-3.266;2023-05-17T00:19:05;102334.31;;;17.77;56.44
23281;BME280;11809;56.390;-3.266;2023-05-17T00:21:35;102334.31;;;17.77;56.25
23281;BME280;11809;56.390;-3.266;2023-05-17T00:24:02;102323.66;;;17.77;56.25
23281;BME280;11809;56.390;-3.266;2023-05-17T00:26:30;102331.69;;;17.75;56.19
23281;BME280;11809;56.390;-3.266;2023-05-17T00:28:57;102327.25;;;17.76;56.27
23281;BME280;11809;56.390;-3.266;2023-05-17T00:31:24;102329.13;;;17.74;56.18
23281;BME280;11809;56.390;-3.266;2023-05-17T00:33:51;102321.13;;;17.74;56.29
23281;BME280;11809;56.390;-3.266;2023-05-17T00:36:18;102321.13;;;17.74;56.23
23281;BME280;11809;56.390;-3.266;2023-05-17T00:38:45;102322.06;;;17.73;56.17
23281;BME280;11809;56.390;-3.266;2023-05-17T00:41:12;102327.53;;;17.70;56.24
23281;BME280;11809;56.390;-3.266;2023-05-17T00:43:40;102329.19;;;17.72;56.32
23281;BME280;11809;56.390;-3.266;2023-05-17T00:46:07;102331.03;;;17.70;56.32
23281;BME280;11809;56.390;-3.266;2023-05-17T00:48:34;102323.91;;;17.71;56.29
23281;BME280;11809;56.390;-3.266;2023-05-17T00:51:02;102313.28;;;17.71;56.22
23281;BME280;11809;56.390;-3.266;2023-05-17T00:53:29;102312.53;;;17.67;56.50
23281;BME280;11809;56.390;-3.266;2023-05-17T00:55:56;102320.47;;;17.69;56.47
23281;BME280;11809;56.390;-3.266;2023-05-17T00:58:24;102329.38;;;17.68;56.35
23281;BME280;11809;56.390;-3.266;2023-05-17T01:00:51;102322.34;;;17.67;56.45
23281;BME280;11809;56.390;-3.266;2023-05-17T01:03:18;102320.53;;;17.67;56.32
23281;BME280;11809;56.390;-3.266;2023-05-17T01:05:45;102328.56;;;17.66;56.58
23281;BME280;11809;56.390;-3.266;2023-05-17T01:08:13;102321.47;;;17.66;56.56
23281;BME280;11809;56.390;-3.266;2023-05-17T01:10:46;102326.00;;;17.64;56.64
23281;BME280;11809;56.390;-3.266;2023-05-17T01:13:47;102318.94;;;17.63;56.46
23281;BME280;11809;56.390;-3.266;2023-05-17T01:16:24;102330.38;;;17.65;56.36
23281;BME280;11809;56.390;-3.266;2023-05-17T01:22:22;102329.50;;;17.65;56.57
23281;BME280;11809;56.390;-3.266;2023-05-17T01:27:26;102331.31;;;17.64;56.54
23281;BME280;11809;56.390;-3.266;2023-05-17T01:29:55;102326.00;;;17.64;56.50
23281;BME280;11809;56.390;-3.266;2023-05-17T01:32:23;102332.16;;;17.65;56.48
23281;BME280;11809;56.390;-3.266;2023-05-17T01:34:51;102327.78;;;17.64;56.59
23281;BME280;11809;56.390;-3.266;2023-05-17T01:37:18;102326.91;;;17.63;56.62
23281;BME280;11809;56.390;-3.266;2023-05-17T01:39:45;102327.78;;;17.64;56.59
23281;BME280;11809;56.390;-3.266;2023-05-17T01:44:47;102325.13;;;17.64;56.79
23281;BME280;11809;56.390;-3.266;2023-05-17T01:47:25;102321.53;;;17.65;56.67
23281;BME280;11809;56.390;-3.266;2023-05-17T01:49:54;102318.84;;;17.65;56.76
23281;BME280;11809;56.390;-3.266;2023-05-17T01:52:30;102322.47;;;17.64;56.42
23281;BME280;11809;56.390;-3.266;2023-05-17T01:57:35;102317.94;;;17.66;56.47
23281;BME280;11809;56.390;-3.266;2023-05-17T02:00:07;102311.84;;;17.64;56.67
23281;BME280;11809;56.390;-3.266;2023-05-17T02:02:38;102318.84;;;17.65;56.56
23281;BME280;11809;56.390;-3.266;2023-05-17T02:05:05;102317.16;;;17.64;56.58
23281;BME280;11809;56.390;-3.266;2023-05-17T02:07:32;102315.38;;;17.64;56.88
23281;BME280;11809;56.390;-3.266;2023-05-17T02:09:59;102309.97;;;17.66;56.55
23281;BME280;11809;56.390;-3.266;2023-05-17T02:12:26;102316.16;;;17.66;56.71
23281;BME280;11809;56.390;-3.266;2023-05-17T02:14:53;102301.19;;;17.64;56.64
23281;BME280;11809;56.390;-3.266;2023-05-17T02:17:20;102311.72;;;17.67;56.72
23281;BME280;11809;56.390;-3.266;2023-05-17T02:19:47;102314.38;;;17.67;56.81
23281;BME280;11809;56.390;-3.266;2023-05-17T02:22:14;102313.41;;;17.68;56.71
23281;BME280;11809;56.390;-3.266;2023-05-17T02:24:41;102313.41;;;17.68;56.72
23281;BME280;11809;56.390;-3.266;2023-05-17T02:27:08;102308.97;;;17.68;56.71
23281;BME280;11809;56.390;-3.266;2023-05-17T02:29:35;102308.97;;;17.68;56.75
23281;BME280;11809;56.390;-3.266;2023-05-17T02:32:03;102308.97;;;17.68;56.80
23281;BME280;11809;56.390;-3.266;2023-05-17T02:34:32;102312.50;;;17.69;56.63
23281;BME280;11809;56.390;-3.266;2023-05-17T02:36:59;102306.25;;;17.70;56.81
23281;BME280;11809;56.390;-3.266;2023-05-17T02:39:26;102305.31;;;17.71;56.77
23281;BME280;11809;56.390;-3.266;2023-05-17T02:41:53;102294.75;;;17.69;56.53
23281;BME280;11809;56.390;-3.266;2023-05-17T02:44:20;102300.06;;;17.69;56.76
23281;BME280;11809;56.390;-3.266;2023-05-17T02:46:47;102298.28;;;17.70;56.73
23281;BME280;11809;56.390;-3.266;2023-05-17T02:49:14;102297.34;;;17.71;56.56
23281;BME280;11809;56.390;-3.266;2023-05-17T02:51:41;102304.44;;;17.70;56.56
23281;BME280;11809;56.390;-3.266;2023-05-17T02:54:08;102307.97;;;17.71;56.67
23281;BME280;11809;56.390;-3.266;2023-05-17T02:56:35;102302.66;;;17.71;56.56
23281;BME280;11809;56.390;-3.266;2023-05-17T02:59:02;102299.06;;;17.72;56.67
23281;BME280;11809;56.390;-3.266;2023-05-17T03:01:29;102303.44;;;17.73;56.68
23281;BME280;11809;56.390;-3.266;2023-05-17T03:03:56;102302.53;;;17.74;56.62
23281;BME280;11809;56.390;-3.266;2023-05-17T03:06:23;102303.44;;;17.73;56.68
23281;BME280;11809;56.390;-3.266;2023-05-17T03:08:50;102305.25;;;17.72;56.44
23281;BME280;11809;56.390;-3.266;2023-05-17T03:11:17;102302.53;;;17.74;56.46
23281;BME280;11809;56.390;-3.266;2023-05-17T03:13:44;102305.19;;;17.74;56.69
23281;BME280;11809;56.390;-3.266;2023-05-17T03:16:12;102306.06;;;17.74;56.50
23281;BME280;11809;56.390;-3.266;2023-05-17T03:18:39;102312.25;;;17.75;56.50
23281;BME280;11809;56.390;-3.266;2023-05-17T03:21:06;102306.91;;;17.75;56.62
23281;BME280;11809;56.390;-3.266;2023-05-17T03:23:33;102313.06;;;17.75;56.31
23281;BME280;11809;56.390;-3.266;2023-05-17T03:26:00;102314.81;;;17.76;56.60
23281;BME280;11809;56.390;-3.266;2023-05-17T03:28:27;102308.63;;;17.76;56.43
23281;BME280;11809;56.390;-3.266;2023-05-17T03:30:54;102305.09;;;17.75;56.41
23281;BME280;11809;56.390;-3.266;2023-05-17T03:33:22;102300.66;;;17.76;56.77
23281;BME280;11809;56.390;-3.266;2023-05-17T03:35:49;102302.41;;;17.77;56.36
23281;BME280;11809;56.390;-3.266;2023-05-17T03:38:16;102297.22;;;17.74;56.34
23281;BME280;11809;56.390;-3.266;2023-05-17T03:40:43;102291.75;;;17.77;56.55
23281;BME280;11809;56.390;-3.266;2023-05-17T03:43:10;102298.78;;;17.78;56.55
23281;BME280;11809;56.390;-3.266;2023-05-17T03:45:37;102294.34;;;17.78;56.67
23281;BME280;11809;56.390;-3.266;2023-05-17T03:48:04;102287.19;;;17.80;56.44
23281;BME280;11809;56.390;-3.266;2023-05-17T03:50:31;102280.13;;;17.79;56.48
23281;BME280;11809;56.390;-3.266;2023-05-17T03:52:58;102283.66;;;17.80;56.30
23281;BME280;11809;56.390;-3.266;2023-05-17T03:55:25;102281.00;;;17.80;56.66
23281;BME280;11809;56.390;-3.266;2023-05-17T03:57:53;102287.09;;;17.82;56.37
23281;BME280;11809;56.390;-3.266;2023-05-17T04:00:20;102276.38;;;17.83;56.51
23281;BME280;11809;56.390;-3.266;2023-05-17T04:02:48;102276.47;;;17.82;56.54
23281;BME280;11809;56.390;-3.266;2023-05-17T04:05:16;102283.44;;;17.84;56.52
23281;BME280;11809;56.390;-3.266;2023-05-17T04:07:44;102291.34;;;17.86;56.76
23281;BME280;11809;56.390;-3.266;2023-05-17T04:10:11;102292.28;;;17.85;56.82
23281;BME280;11809;56.390;-3.266;2023-05-17T04:12:38;102294.94;;;17.85;56.27
23281;BME280;11809;56.390;-3.266;2023-05-17T04:15:06;102288.66;;;17.86;56.41
23281;BME280;11809;56.390;-3.266;2023-05-17T04:17:33;102280.69;;;17.86;56.50
23281;BME280;11809;56.390;-3.266;2023-05-17T04:20:00;102271.78;;;17.87;56.71
23281;BME280;11809;56.390;-3.266;2023-05-17T04:22:27;102273.53;;;17.88;56.71
23281;BME280;11809;56.390;-3.266;2023-05-17T04:24:54;102272.59;;;17.89;56.70
23281;BME280;11809;56.390;-3.266;2023-05-17T04:27:21;102275.38;;;17.86;56.21
23281;BME280;11809;56.390;-3.266;2023-05-17T04:29:48;102281.63;;;17.65;53.96
23281;BME280;11809;56.390;-3.266;2023-05-17T04:32:16;102280.06;;;17.61;54.34
23281;BME280;11809;56.390;-3.266;2023-05-17T04:34:43;102287.66;;;17.70;55.73
23281;BME280;11809;56.390;-3.266;2023-05-17T04:37:10;102278.50;;;17.75;56.28
23281;BME280;11809;56.390;-3.266;2023-05-17T04:39:37;102281.84;;;17.80;56.41
23281;BME280;11809;56.390;-3.266;2023-05-17T04:42:05;102279.00;;;17.85;56.52
23281;BME280;11809;56.390;-3.266;2023-05-17T04:44:32;102287.75;;;17.87;56.48
23281;BME280;11809;56.390;-3.266;2023-05-17T04:47:00;102303.56;;;17.90;56.43
23281;BME280;11809;56.390;-3.266;2023-05-17T04:49:27;102301.84;;;17.89;56.73
23281;BME280;11809;56.390;-3.266;2023-05-17T04:51:54;102310.78;;;17.88;56.73
23281;BME280;11809;56.390;-3.266;2023-05-17T04:54:21;102305.31;;;17.91;56.41
23281;BME280;11809;56.390;-3.266;2023-05-17T04:56:48;102308.78;;;17.93;56.35
23281;BME280;11809;56.390;-3.266;2023-05-17T04:59:15;102305.16;;;17.94;56.30
23281;BME280;11809;56.390;-3.266;2023-05-17T05:01:42;102312.22;;;17.95;56.48
23281;BME280;11809;56.390;-3.266;2023-05-17T05:04:09;102324.59;;;17.96;56.17
23281;BME280;11809;56.390;-3.266;2023-05-17T05:06:36;102324.59;;;17.96;56.41
23281;BME280;11809;56.390;-3.266;2023-05-17T05:09:03;102330.75;;;17.96;56.17
23281;BME280;11809;56.390;-3.266;2023-05-17T05:11:30;102330.06;;;17.93;56.32
23281;BME280;11809;56.390;-3.266;2023-05-17T05:13:57;102328.25;;;17.93;56.56
23281;BME280;11809;56.390;-3.266;2023-05-17T05:16:25;102322.13;;;17.91;56.69
23281;BME280;11809;56.390;-3.266;2023-05-17T05:18:52;102330.84;;;17.95;56.35
23281;BME280;11809;56.390;-3.266;2023-05-17T05:21:19;102325.53;;;17.95;56.45
23281;BME280;11809;56.390;-3.266;2023-05-17T05:23:46;102321.13;;;17.94;56.55
23281;BME280;11809;56.390;-3.266;2023-05-17T05:26:13;102330.63;;;17.99;56.68
23281;BME280;11809;56.390;-3.266;2023-05-17T05:28:40;102333.09;;;18.04;56.81
23281;BME280;11809;56.390;-3.266;2023-05-17T05:31:07;102333.91;;;18.06;56.88
23281;BME280;11809;56.390;-3.266;2023-05-17T05:33:34;102331.38;;;18.03;56.61
23281;BME280;11809;56.390;-3.266;2023-05-17T05:36:02;102340.25;;;18.02;56.52
23281;BME280;11809;56.390;-3.266;2023-05-17T05:38:29;102334.09;;;18.01;56.84
23281;BME280;11809;56.390;-3.266;2023-05-17T05:40:56;102329.63;;;18.02;56.62
23281;BME280;11809;56.390;-3.266;2023-05-17T05:43:23;102337.59;;;18.02;56.73
23281;BME280;11809;56.390;-3.266;2023-05-17T05:45:50;102336.69;;;18.03;56.63
23281;BME280;11809;56.390;-3.266;2023-05-17T05:48:17;102338.47;;;18.02;56.67
23281;BME280;11809;56.390;-3.266;2023-05-17T05:50:44;102337.56;;;18.03;56.55
23281;BME280;11809;56.390;-3.266;2023-05-17T05:53:12;102344.66;;;18.03;56.64
23281;BME280;11809;56.390;-3.266;2023-05-17T05:55:44;102342.00;;;18.03;56.71
23281;BME280;11809;56.390;-3.266;2023-05-17T05:58:11;102338.44;;;18.04;56.80
23281;BME280;11809;56.390;-3.266;2023-05-17T06:00:38;102331.28;;;18.04;56.57
23281;BME280;11809;56.390;-3.266;2023-05-17T06:03:05;102332.97;;;18.07;57.21
23281;BME280;11809;56.390;-3.266;2023-05-17T06:05:32;102333.69;;;18.10;56.73
23281;BME280;11809;56.390;-3.266;2023-05-17T06:08:00;102345.94;;;18.14;56.50
23281;BME280;11809;56.390;-3.266;2023-05-17T06:10:27;102352.09;;;18.15;56.64
23281;BME280;11809;56.390;-3.266;2023-05-17T06:12:54;102356.44;;;18.17;56.60
23281;BME280;11809;56.390;-3.266;2023-05-17T06:15:21;102359.94;;;18.18;56.64
23281;BME280;11809;56.390;-3.266;2023-05-17T06:17:48;102355.50;;;18.18;56.49
23281;BME280;11809;56.390;-3.266;2023-05-17T06:20:15;102359.91;;;18.20;56.37
23281;BME280;11809;56.390;-3.266;2023-05-17T06:22:43;102353.63;;;18.21;56.74
23281;BME280;11809;56.390;-3.266;2023-05-17T06:25:10;102351.91;;;18.20;56.81
23281;BME280;11809;56.390;-3.266;2023-05-17T06:27:37;102338.59;;;18.20;56.82
23281;BME280;11809;56.390;-3.266;2023-05-17T06:30:05;102346.63;;;18.18;56.77
23281;BME280;11809;56.390;-3.266;2023-05-17T06:32:33;102349.13;;;18.23;56.78
23281;BME280;11809;56.390;-3.266;2023-05-17T06:35:01;102348.25;;;18.22;56.64
23281;BME280;11809;56.390;-3.266;2023-05-17T06:37:28;102346.38;;;18.24;56.58
23281;BME280;11809;56.390;-3.266;2023-05-17T06:40:04;102351.69;;;18.24;56.76
23281;BME280;11809;56.390;-3.266;2023-05-17T06:42:41;102348.16;;;18.24;56.57
23281;BME280;11809;56.390;-3.266;2023-05-17T06:45:09;102352.63;;;18.23;56.65
23281;BME280;11809;56.390;-3.266;2023-05-17T06:47:36;102353.31;;;18.28;56.59
23281;BME280;11809;56.390;-3.266;2023-05-17T06:50:05;102344.28;;;18.12;56.98
23281;BME280;11809;56.390;-3.266;2023-05-17T06:52:33;102339.25;;;18.04;57.54
23281;BME280;11809;56.390;-3.266;2023-05-17T06:55:00;102350.84;;;18.03;57.46
23281;BME280;11809;56.390;-3.266;2023-05-17T06:57:28;102341.41;;;17.96;57.46
23281;BME280;11809;56.390;-3.266;2023-05-17T06:59:58;102346.88;;;17.93;57.77
23281;BME280;11809;56.390;-3.266;2023-05-17T07:02:25;102346.13;;;17.90;57.91
23281;BME280;11809;56.390;-3.266;2023-05-17T07:04:52;102345.34;;;17.88;57.82
23281;BME280;11809;56.390;-3.266;2023-05-17T07:07:19;102340.28;;;17.82;58.02
23281;BME280;11809;56.390;-3.266;2023-05-17T07:09:47;102340.28;;;17.82;58.31
23281;BME280;11809;56.390;-3.266;2023-05-17T07:12:15;102341.22;;;17.81;58.26
23281;BME280;11809;56.390;-3.266;2023-05-17T07:14:42;102342.16;;;17.80;58.29
23281;BME280;11809;56.390;-3.266;2023-05-17T07:17:10;102339.63;;;17.77;58.28
23281;BME280;11809;56.390;-3.266;2023-05-17T07:19:37;102331.78;;;17.74;58.21
23281;BME280;11809;56.390;-3.266;2023-05-17T07:22:04;102335.06;;;17.80;58.49
23281;BME280;11809;56.390;-3.266;2023-05-17T07:24:32;102339.06;;;17.89;58.36
23281;BME280;11809;56.390;-3.266;2023-05-17T07:27:01;102352.19;;;17.93;57.87
23281;BME280;11809;56.390;-3.266;2023-05-17T07:29:29;102347.31;;;18.03;58.01
23281;BME280;11809;56.390;-3.266;2023-05-17T07:31:56;102353.56;;;18.02;57.72
23281;BME280;11809;56.390;-3.266;2023-05-17T07:34:23;102352.78;;;18.00;58.17
23281;BME280;11809;56.390;-3.266;2023-05-17T07:36:51;102350.47;;;17.92;58.29
23281;BME280;11809;56.390;-3.266;2023-05-17T07:39:18;102352.47;;;17.87;58.33
23281;BME280;11809;56.390;-3.266;2023-05-17T07:41:46;102347.25;;;17.84;58.35
23281;BME280;11809;56.390;-3.266;2023-05-17T07:44:13;102343.88;;;17.81;58.35
23281;BME280;11809;56.390;-3.266;2023-05-17T07:46:40;102342.16;;;17.80;58.45
23281;BME280;11809;56.390;-3.266;2023-05-17T07:49:08;102340.38;;;17.80;58.17
23281;BME280;11809;56.390;-3.266;2023-05-17T07:51:35;102337.72;;;17.80;58.13
23281;BME280;11809;56.390;-3.266;2023-05-17T07:54:02;102332.31;;;17.82;58.22
23281;BME280;11809;56.390;-3.266;2023-05-17T07:56:30;102337.63;;;17.82;58.30
23281;BME280;11809;56.390;-3.266;2023-05-17T07:58:57;102339.06;;;17.89;58.22
23281;BME280;11809;56.390;-3.266;2023-05-17T08:01:25;102337.00;;;17.75;56.38
23281;BME280;11809;56.390;-3.266;2023-05-17T08:03:52;102329.50;;;17.65;55.75
23281;BME280;11809;56.390;-3.266;2023-05-17T08:06:19;102335.16;;;17.57;55.32
23281;BME280;11809;56.390;-3.266;2023-05-17T08:08:47;102330.91;;;17.51;54.80
23281;BME280;11809;56.390;-3.266;2023-05-17T08:11:14;102327.53;;;17.48;54.68
23281;BME280;11809;56.390;-3.266;2023-05-17T08:13:41;102332.22;;;17.41;54.43
23281;BME280;11809;56.390;-3.266;2023-05-17T08:16:10;102333.84;;;17.45;54.47
23281;BME280;11809;56.390;-3.266;2023-05-17T08:18:41;102335.69;;;17.43;53.98
23281;BME280;11809;56.390;-3.266;2023-05-17T08:21:12;102332.34;;;17.38;53.90
23281;BME280;11809;56.390;-3.266;2023-05-17T08:23:39;102335.97;;;17.37;54.03
23281;BME280;11809;56.390;-3.266;2023-05-17T08:26:07;102335.88;;;17.39;53.78
23281;BME280;11809;56.390;-3.266;2023-05-17T08:28:35;102335.56;;;17.46;53.52
23281;BME280;11809;56.390;-3.266;2023-05-17T08:31:02;102339.00;;;17.48;53.77
23281;BME280;11809;56.390;-3.266;2023-05-17T08:33:30;102343.88;;;17.61;53.79
23281;BME280;11809;56.390;-3.266;2023-05-17T08:35:58;102341.94;;;17.64;53.34
23281;BME280;11809;56.390;-3.266;2023-05-17T08:38:29;102346.31;;;17.65;53.22
23281;BME280;11809;56.390;-3.266;2023-05-17T08:40:57;102338.88;;;17.73;53.55
23281;BME280;11809;56.390;-3.266;2023-05-17T08:43:26;102344.41;;;17.89;54.78
23281;BME280;11809;56.390;-3.266;2023-05-17T08:45:54;102337.28;;;17.89;54.59
23281;BME280;11809;56.390;-3.266;2023-05-17T08:48:25;102338.94;;;17.92;55.45
23281;BME280;11809;56.390;-3.266;2023-05-17T08:50:54;102341.13;;;18.02;55.74
23281;BME280;11809;56.390;-3.266;2023-05-17T08:53:23;102335.47;;;18.10;56.19
23281;BME280;11809;56.390;-3.266;2023-05-17T08:55:57;102332.03;;;18.08;55.96
23281;BME280;11809;56.390;-3.266;2023-05-17T08:58:34;102331.69;;;18.15;55.97
23281;BME280;11809;56.390;-3.266;2023-05-17T09:01:22;102330.53;;;18.21;55.64
23281;BME280;11809;56.390;-3.266;2023-05-17T09:03:52;102326.09;;;18.22;55.98
23281;BME280;11809;56.390;-3.266;2023-05-17T09:06:21;102325.06;;;18.24;56.25
23281;BME280;11809;56.390;-3.266;2023-05-17T09:08:50;102328.53;;;18.26;56.19
23281;BME280;11809;56.390;-3.266;2023-05-17T09:11:26;102322.41;;;18.24;56.33
23281;BME280;11809;56.390;-3.266;2023-05-17T09:14:02;102325.88;;;18.26;56.37
23281;BME280;11809;56.390;-3.266;2023-05-17T09:16:34;102327.59;;;18.27;56.56
23281;BME280;11809;56.390;-3.266;2023-05-17T09:19:06;102324.03;;;18.28;56.50
23281;BME280;11809;56.390;-3.266;2023-05-17T09:21:36;102319.50;;;18.30;56.84
23281;BME280;11809;56.390;-3.266;2023-05-17T09:24:04;102325.59;;;18.32;56.75
23281;BME280;11809;56.390;-3.266;2023-05-17T09:26:51;102320.06;;;18.37;57.04
23281;BME280;11809;56.390;-3.266;2023-05-17T09:29:19;102314.69;;;18.38;57.20
23281;BME280;11809;56.390;-3.266;2023-05-17T09:31:46;102310.13;;;18.40;57.11
23281;BME280;11809;56.390;-3.266;2023-05-17T09:34:17;102304.69;;;18.43;57.12
23281;BME280;11809;56.390;-3.266;2023-05-17T09:36:45;102308.13;;;18.45;57.38
23281;BME280;11809;56.390;-3.266;2023-05-17T09:39:12;102304.44;;;18.49;57.31
23281;BME280;11809;56.390;-3.266;2023-05-17T09:41:45;102307.00;;;18.51;57.22
23281;BME280;11809;56.390;-3.266;2023-05-17T09:44:14;102305.06;;;18.54;56.81
23281;BME280;11809;56.390;-3.266;2023-05-17T09:46:44;102304.06;;;18.57;56.96
23281;BME280;11809;56.390;-3.266;2023-05-17T09:49:12;102298.59;;;18.60;56.67
23281;BME280;11809;56.390;-3.266;2023-05-17T09:51:41;102301.25;;;18.60;56.85
23281;BME280;11809;56.390;-3.266;2023-05-17T09:54:09;102290.44;;;18.63;57.02
23281;BME280;11809;56.390;-3.266;2023-05-17T09:56:37;102294.78;;;18.65;56.99
23281;BME280;11809;56.390;-3.266;2023-05-17T10:01:41;102281.88;;;18.75;57.09
23281;BME280;11809;56.390;-3.266;2023-05-17T10:04:09;102282.81;;;18.74;56.97
23281;BME280;11809;56.390;-3.266;2023-05-17T10:06:39;102281.94;;;18.73;56.91
23281;BME280;11809;56.390;-3.266;2023-05-17T10:09:21;102283.69;;;18.74;56.95
23281;BME280;11809;56.390;-3.266;2023-05-17T10:11:51;102275.53;;;18.77;56.98
23281;BME280;11809;56.390;-3.266;2023-05-17T10:16:49;102275.47;;;18.79;57.03
23281;BME280;11809;56.390;-3.266;2023-05-17T10:19:19;102276.31;;;18.80;56.69
23281;BME280;11809;56.390;-3.266;2023-05-17T10:21:49;102274.63;;;18.79;56.72
23281;BME280;11809;56.390;-3.266;2023-05-17T10:24:18;102263.72;;;18.83;56.84
23281;BME280;11809;56.390;-3.266;2023-05-17T10:26:50;102267.25;;;18.84;56.87
23281;BME280;11809;56.390;-3.266;2023-05-17T10:29:18;102256.59;;;18.84;56.77
23281;BME280;11809;56.390;-3.266;2023-05-17T10:31:49;102265.53;;;18.83;56.67
23281;BME280;11809;56.390;-3.266;2023-05-17T10:34:19;102263.78;;;18.82;56.38
23281;BME280;11809;56.390;-3.266;2023-05-17T10:36:48;102268.47;;;18.76;56.69
23281;BME280;11809;56.390;-3.266;2023-05-17T10:39:16;102262.31;;;18.76;56.67
23281;BME280;11809;56.390;-3.266;2023-05-17T10:41:45;102257.03;;;18.74;56.80
23281;BME280;11809;56.390;-3.266;2023-05-17T10:44:15;102255.47;;;18.70;56.79
23281;BME280;11809;56.390;-3.266;2023-05-17T10:46:56;102261.72;;;18.69;56.65
23281;BME280;11809;56.390;-3.266;2023-05-17T10:49:31;102255.47;;;18.70;56.85
23281;BME280;11809;56.390;-3.266;2023-05-17T10:52:16;102246.84;;;18.65;56.99
23281;BME280;11809;56.390;-3.266;2023-05-17T10:54:44;102254.63;;;18.70;57.00
23281;BME280;11809;56.390;-3.266;2023-05-17T10:57:40;102247.31;;;18.73;57.16
23281;BME280;11809;56.390;-3.266;2023-05-17T11:00:20;102247.53;;;18.69;57.24
23281;BME280;11809;56.390;-3.266;2023-05-17T11:02:47;102246.53;;;18.71;57.14
23281;BME280;11809;56.390;-3.266;2023-05-17T11:05:25;102244.66;;;18.73;57.50
23281;BME280;11809;56.390;-3.266;2023-05-17T11:08:14;102237.63;;;18.72;57.13
23281;BME280;11809;56.390;-3.266;2023-05-17T11:11:16;102233.84;;;18.76;57.43
23281;BME280;11809;56.390;-3.266;2023-05-17T11:16:15;102234.00;;;18.73;57.59
23281;BME280;11809;56.390;-3.266;2023-05-17T11:18:47;102227.91;;;18.71;57.53
23281;BME280;11809;56.390;-3.266;2023-05-17T11:21:15;102230.56;;;18.71;57.83
23281;BME280;11809;56.390;-3.266;2023-05-17T11:23:44;102214.72;;;18.68;58.07
23281;BME280;11809;56.390;-3.266;2023-05-17T11:26:38;102224.44;;;18.69;58.06
23281;BME280;11809;56.390;-3.266;2023-05-17T11:29:07;102231.50;;;18.70;58.70
23281;BME280;11809;56.390;-3.266;2023-05-17T11:31:42;102211.13;;;18.69;58.73
23281;BME280;11809;56.390;-3.266;2023-05-17T11:34:10;102220.91;;;18.69;59.22
23281;BME280;11809;56.390;-3.266;2023-05-17T11:36:52;102221.69;;;18.71;58.35
23281;BME280;11809;56.390;-3.266;2023-05-17T11:39:21;102221.69;;;18.71;58.51
23281;BME280;11809;56.390;-3.266;2023-05-17T11:41:50;102222.66;;;18.70;58.24
23281;BME280;11809;56.390;-3.266;2023-05-17T11:44:31;102215.84;;;18.82;58.48
23281;BME280;11809;56.390;-3.266;2023-05-17T11:47:03;102210.50;;;18.82;58.36
23281;BME280;11809;56.390;-3.266;2023-05-17T11:49:32;102214.28;;;18.77;58.73
23281;BME280;11809;56.390;-3.266;2023-05-17T11:52:04;102208.97;;;18.77;58.81
23281;BME280;11809;56.390;-3.266;2023-05-17T11:54:32;102213.25;;;18.80;58.71
23281;BME280;11809;56.390;-3.266;2023-05-17T11:56:59;102206.78;;;18.86;58.44
23281;BME280;11809;56.390;-3.266;2023-05-17T11:59:35;102217.56;;;18.83;58.59
23281;BME280;11809;56.390;-3.266;2023-05-17T12:02:04;102208.56;;;18.85;58.63
23281;BME280;11809;56.390;-3.266;2023-05-17T12:04:34;102208.03;;;18.96;54.37
23281;BME280;11809;56.390;-3.266;2023-05-17T12:07:04;102209.63;;;19.00;52.71
23281;BME280;11809;56.390;-3.266;2023-05-17T12:09:31;102212.97;;;19.03;52.45
23281;BME280;11809;56.390;-3.266;2023-05-17T12:12:02;102211.19;;;19.04;50.82
23281;BME280;11809;56.390;-3.266;2023-05-17T12:14:30;102210.25;;;19.05;48.34
23281;BME280;11809;56.390;-3.266;2023-05-17T12:16:58;102207.59;;;19.05;47.39
23281;BME280;11809;56.390;-3.266;2023-05-17T12:19:28;102213.53;;;19.10;48.82
23281;BME280;11809;56.390;-3.266;2023-05-17T12:22:09;102211.03;;;19.07;48.45
23281;BME280;11809;56.390;-3.266;2023-05-17T12:24:41;102206.00;;;19.01;49.69
23281;BME280;11809;56.390;-3.266;2023-05-17T12:27:09;102202.31;;;19.03;46.21
23281;BME280;11809;56.390;-3.266;2023-05-17T12:29:38;102198.81;;;19.03;48.10
23281;BME280;11809;56.390;-3.266;2023-05-17T12:32:06;102200.81;;;18.98;50.26
23281;BME280;11809;56.390;-3.266;2023-05-17T12:34:35;102202.22;;;18.88;52.22
23281;BME280;11809;56.390;-3.266;2023-05-17T12:37:02;102205.38;;;18.96;48.65
23281;BME280;11809;56.390;-3.266;2023-05-17T12:39:30;102202.69;;;18.96;48.39
23281;BME280;11809;56.390;-3.266;2023-05-17T12:41:57;102196.50;;;18.95;46.94
23281;BME280;11809;56.390;-3.266;2023-05-17T12:44:25;102203.88;;;18.90;47.79
23281;BME280;11809;56.390;-3.266;2023-05-17T12:46:53;102206.63;;;18.89;48.66
23281;BME280;11809;56.390;-3.266;2023-05-17T12:49:22;102212.09;;;18.86;50.48
23281;BME280;11809;56.390;-3.266;2023-05-17T12:51:49;102215.78;;;18.83;51.18
23281;BME280;11809;56.390;-3.266;2023-05-17T12:56:49;102211.31;;;18.84;51.53
23281;BME280;11809;56.390;-3.266;2023-05-17T12:59:18;102202.47;;;18.83;52.44
23281;BME280;11809;56.390;-3.266;2023-05-17T13:01:55;102205.19;;;18.82;52.48
23281;BME280;11809;56.390;-3.266;2023-05-17T13:04:31;102199.94;;;18.80;52.62
23281;BME280;11809;56.390;-3.266;2023-05-17T13:07:01;102207.06;;;18.80;53.02
23281;BME280;11809;56.390;-3.266;2023-05-17T13:09:30;102198.16;;;18.81;53.17
23281;BME280;11809;56.390;-3.266;2023-05-17T13:12:06;102196.41;;;18.80;53.37